Tofino Airport
CYAZ : now visible

Airfield :











YOU CAN JOIN US ON...

 
LOGIN :

Register | Disclaimer

   EN    FR    IT 

 









Legend :    VFR   Marginal VFR   IFR   Intensive IFR   Very Intensive IFR
Visi :
Ceiling :
>= 8 km
>= 3000ft
5 to 8 km
1000 to 3000 ft
1500m to 5 km
500 to 1000 ft
800 to 1500m
200 to 500 ft
< 800m
< 200 ft
Symbols :   Thunderstorms  Fog  Heavy snow  Heavy precipitations  Wind > 20 kt






- Airport Elevation : 80 ft
- IATA code : YAZ


CYAZ - Tofino

CURRENT METAR :
  • 270000Z 15017G25KT 2SM RA BR FEW008 OVC013 08/07 A2982 RMK SF2ST6 SLP098

EXPIRED METARs :
  • 262304Z 15018G26KT 2SM RA BR FEW007 OVC013 09/08 A2982 RMK SF2ST6 SLP101
  • 262200Z 13012G18KT 3SM -RA BR BKN011 OVC030 09/08 A2983 RMK SF5SC3 SLP103
  • 262154Z 14012G18KT 5SM RA BR BKN010 OVC032 09/08 A2983 RMK SF5SC3 SLP104

TAF AMD TAF CYAZ
Valid from the 26 at 23:00 until the 27 at 01:00 UTC


262307Z 2623/2701 15017G27KT 2SM SHRA BR BKN007 OVC012
TEMPO 2623/2701 5SM -SHRA BR SCT007 OVC012 RMK NXT FCST WILL BE ISSUED AT 271645Z



MET'MAP, your aeronautical weather chart ! - Copyright ORBIFLY December 2007 - Disclaimer

ORBIFLY MET'MAP TEAM :

Programming & Development : Alexandra Zaïnal
Concept & original design : Baudouin d'Aumeries
Assistance for programming : Marc-Olivier Méhu
Technical & hardware support : Manuel Goepfert

Contact : metmap@orbifly.com




SOURCES & CREDITS :

   NOAA       Earth
Advisory